Latest Weather Observations for Mallacoota

IDV60801

Issued at 2:02 pm EST Wednesday 4 May 2016 (issued every 30 minutes, with the page automatically refreshed every 10 minutes)

About weather observations | Map of weather stations | Latest weather observations for VIC | Other Formats
Station Details ID: 084084 Name: MALLACOOTA Lat: -37.60 Lon: 149.73 Height: 22.0 m
Data from the previous 72 hours. | See also: Recent months at Mallacoota
Date/Time
EST
Temp
°C
App
Temp
°C
Dew
Point
Rel
Hum
%
Delta-T
°C
Wind Press
QNH
hPa
Press
MSL
hPa
Rain
since 9 am
mm
Dir
 
Spd
km/h
Gust
km/h
Spd
kts
Gust
kts
04/02:00pm 16.2 11.9 7.7 57 4.3 S 20 33 11 18 1014.5 - 0.2
04/01:30pm 16.5 12.1 7.4 55 4.5 S 20 32 11 17 1014.5 - 0.2
04/01:00pm 17.2 13.2 6.7 50 5.2 SSW 17 24 9 13 1014.6 - 0.2
04/12:30pm 17.2 13.1 6.4 49 5.3 SSW 17 28 9 15 1014.7 - 0.2
04/12:00pm 16.7 12.9 5.6 48 5.3 WSW 15 24 8 13 1014.9 1014.9 0.2
04/11:30am 16.3 11.6 5.9 50 5.0 SW 20 37 11 20 1015.0 - 0.2
04/11:00am 16.1 11.8 7.1 55 4.5 WSW 19 33 10 18 1015.0 - 0.2
04/10:30am 15.7 11.8 7.2 57 4.2 SW 17 32 9 17 1014.9 - 0.2
04/10:00am 15.1 11.6 7.2 59 3.9 WSW 15 24 8 13 1014.7 - 0.2
04/09:30am 14.8 11.4 7.6 62 3.6 W 15 24 8 13 1014.8 - 0.2
04/09:00am 13.6 10.9 7.4 66 3.0 W 11 20 6 11 1014.9 1014.9 0.2
04/08:30am 12.4 9.7 7.5 72 2.4 W 11 19 6 10 1014.7 - 0.2
04/08:00am 12.1 9.5 7.8 75 2.1 W 11 19 6 10 1014.2 - 0.2
04/07:30am 11.6 9.8 7.9 78 1.8 WNW 7 13 4 7 1013.5 - 0.2
04/07:00am 11.3 9.1 8.0 80 1.6 WNW 9 15 5 8 1013.0 - 0.2
04/06:30am 11.2 9.1 8.4 83 1.4 WNW 9 15 5 8 1012.7 - 0.2
04/06:00am 11.2 8.8 8.8 85 1.2 WNW 11 17 6 9 1011.9 1011.9 0.2
04/05:30am 11.2 8.8 8.8 85 1.2 WNW 11 17 6 9 1011.4 - 0.2
04/05:00am 11.1 8.8 9.0 87 1.0 NW 11 15 6 8 1011.0 - 0.2
04/04:30am 11.2 8.9 9.1 87 1.0 WNW 11 19 6 10 1010.5 - 0.2
04/04:00am 11.3 9.1 9.2 87 1.1 WNW 11 19 6 10 1010.2 - 0.2
04/03:30am 11.2 9.0 9.3 88 1.0 WNW 11 19 6 10 1009.8 - 0.2
04/03:00am 11.4 9.6 9.3 87 1.1 W 9 15 5 8 1009.7 1009.7 0.2
04/02:30am 11.8 9.1 8.8 82 1.5 W 13 22 7 12 1009.3 - 0.2
04/02:00am 12.9 9.9 7.8 71 2.5 W 13 20 7 11 1009.0 - 0.0
04/01:30am 13.1 10.2 8.0 71 2.5 W 13 20 7 11 1008.7 - 0.0
04/01:00am 13.2 10.3 8.3 72 2.4 WSW 13 20 7 11 1008.5 - 0.0
04/12:30am 13.9 10.5 9.1 73 2.4 WSW 17 28 9 15 1008.1 - 0.0
04/12:00am 13.6 11.5 9.8 78 2.0 W 11 19 6 10 1007.6 1007.6 0.0
 
Date/Time
EST
Temp
°C
App
Temp
°C
Dew
Point
Rel
Hum
%
Delta-T
°C
Wind Press
QNH
hPa
Press
MSL
hPa
Rain
since 9 am
mm
Dir
 
Spd
km/h
Gust
km/h
Spd
kts
Gust
kts
03/11:30pm 13.8 11.2 10.6 81 1.7 WSW 15 28 8 15 1007.2 - 0.0
03/11:00pm 14.1 12.0 11.3 83 1.5 WSW 13 19 7 10 1007.3 - 0.0
03/10:30pm 14.5 11.7 11.3 81 1.7 SW 17 32 9 17 1006.8 - 0.0
03/10:00pm 14.8 11.5 11.6 81 1.7 SW 20 37 11 20 1006.6 - 0.0
03/09:30pm 14.9 11.9 12.6 86 1.3 SW 20 33 11 18 1006.0 - 0.0
03/09:02pm 16.2 11.7 12.6 79 2.0 SSW 28 50 15 27 1005.4 - 0.0
03/09:00pm 16.5 12.0 11.4 72 2.8 SSW 26 50 14 27 1005.3 1005.3 0.0
03/08:54pm 16.5 10.6 9.0 61 3.9 SSW 30 44 16 24 1005.2 - 0.0
03/08:30pm 15.8 13.0 5.1 49 5.1 N 9 13 5 7 1003.3 - 0.0
03/08:00pm 16.6 14.1 4.9 46 5.6 N 7 15 4 8 1002.9 - 0.0
03/07:30pm 17.6 14.3 4.5 42 6.2 N 11 17 6 9 1002.3 - 0.0
03/07:00pm 18.8 14.7 4.2 38 7.0 N 15 20 8 11 1001.8 - 0.0
03/06:30pm 18.0 14.6 4.2 40 6.5 N 11 17 6 9 1001.6 - 0.0
03/06:00pm 18.0 15.0 4.2 40 6.6 NNW 9 13 5 7 1001.3 1001.3 0.0
03/05:30pm 19.4 16.7 3.6 35 7.5 NNW 7 11 4 6 1000.6 - 0.0
03/05:00pm 20.9 17.0 3.6 32 8.3 N 13 24 7 13 999.7 - 0.0
03/04:30pm 22.9 21.0 4.9 31 8.9 WNW 4 11 2 6 999.3 - 0.0
03/04:00pm 23.7 19.7 3.1 26 10.0 WNW 13 24 7 13 999.0 - 0.0
03/03:30pm 24.1 19.0 2.9 25 10.2 NNW 19 33 10 18 998.9 - 0.0
03/03:00pm 24.6 20.4 3.8 26 10.3 NNW 15 32 8 17 998.8 998.8 0.0
03/02:30pm 24.4 18.2 1.9 23 10.7 NNW 24 39 13 21 998.7 - 0.0
03/02:00pm 23.4 20.7 5.8 32 8.9 NNE 9 17 5 9 999.4 - 0.0
03/01:30pm 22.9 18.5 6.6 35 8.4 NNE 19 28 10 15 999.8 - 0.0
03/01:00pm 22.6 18.7 5.5 33 8.6 N 15 20 8 11 1000.3 - 0.0
03/12:30pm 21.2 17.2 6.7 39 7.4 NNE 17 26 9 14 1001.2 - 0.0
03/12:00pm 20.4 17.0 6.0 39 7.2 NNE 13 20 7 11 1002.4 1002.4 0.0
03/11:30am 20.7 16.1 5.5 37 7.5 N 19 26 10 14 1003.3 - 0.0
03/11:00am 20.3 16.1 5.5 38 7.3 N 17 26 9 14 1003.9 - 0.0
03/10:30am 19.1 14.9 5.6 41 6.6 N 17 24 9 13 1004.6 - 0.0
03/10:00am 17.4 13.6 6.0 47 5.6 N 15 20 8 11 1004.9 - 0.0
03/09:30am 15.7 12.0 4.7 48 5.2 NNW 13 20 7 11 1005.4 - 0.0
03/09:00am 14.3 11.0 4.6 52 4.5 N 11 17 6 9 1005.6 1005.6 0.0
03/08:30am 12.1 9.2 4.6 60 3.4 N 9 13 5 7 1005.8 - 0.0
03/08:00am 9.5 6.5 3.9 68 2.5 NW 9 11 5 6 1006.3 - 0.0
03/07:30am 7.5 4.4 3.6 76 1.7 NW 9 13 5 7 1006.4 - 0.0
03/07:00am 4.9 1.6 2.6 85 0.9 NW 9 13 5 7 1006.8 - 0.0
03/06:30am 5.1 1.8 2.3 82 1.1 WNW 9 11 5 6 1006.8 - 0.0
03/06:00am 6.3 2.3 2.6 77 1.5 W 13 17 7 9 1006.8 1006.8 0.0
03/05:30am 3.9 0.2 2.4 90 0.6 N 11 17 6 9 1006.5 - 0.0
03/05:00am 4.6 3.0 2.6 87 0.8 CALM 0 0 0 0 1006.9 - 0.0
03/04:30am 4.7 2.0 2.6 86 0.9 WSW 6 9 3 5 1006.9 - 0.0
03/04:00am 5.5 3.9 2.5 81 1.2 CALM 0 6 0 3 1007.1 - 0.0
03/03:30am 8.0 4.0 2.7 69 2.2 NNW 13 17 7 9 1007.0 - 0.0
03/03:00am 8.3 3.9 2.8 68 2.3 NNW 15 19 8 10 1007.2 1007.2 0.0
03/02:30am 7.7 3.3 2.8 71 2.1 NNW 15 17 8 9 1007.8 - 0.0
03/02:00am 6.7 2.7 2.8 76 1.6 NW 13 17 7 9 1008.4 - 0.0
03/01:30am 6.5 2.5 2.9 78 1.5 NNW 13 17 7 9 1008.9 - 0.0
03/01:00am 8.1 4.2 3.4 72 2.0 NW 13 17 7 9 1009.3 - 0.0
03/12:30am 8.0 4.2 3.7 74 1.8 NW 13 17 7 9 1009.6 - 0.0
03/12:00am 8.0 3.9 4.2 77 1.7 NNW 15 17 8 9 1010.1 1010.1 0.0
 
Date/Time
EST
Temp
°C
App
Temp
°C
Dew
Point
Rel
Hum
%
Delta-T
°C
Wind Press
QNH
hPa
Press
MSL
hPa
Rain
since 9 am
mm
Dir
 
Spd
km/h
Gust
km/h
Spd
kts
Gust
kts
02/11:30pm 7.9 3.8 4.5 79 1.5 NW 15 17 8 9 1010.4 - 0.0
02/11:00pm 8.7 5.0 4.5 75 1.9 NW 13 17 7 9 1010.6 - 0.0
02/10:30pm 8.6 5.0 4.8 77 1.7 NW 13 17 7 9 1010.5 - 0.0
02/10:00pm 8.6 5.0 5.0 78 1.6 NW 13 17 7 9 1010.7 - 0.0
02/09:30pm 8.3 5.1 4.9 79 1.5 NW 11 15 6 8 1010.9 - 0.0
02/09:00pm 8.3 5.1 5.2 81 1.4 NW 11 13 6 7 1011.1 1011.1 0.0
02/08:30pm 9.3 6.1 5.3 76 1.8 WNW 11 13 6 7 1011.2 - 0.0
02/08:00pm 10.2 7.1 5.4 72 2.2 WNW 11 17 6 9 1011.4 - 0.0
02/07:30pm 10.3 6.8 5.5 72 2.2 WNW 13 17 7 9 1011.6 - 0.0
02/07:00pm 10.1 7.0 5.7 74 2.0 WNW 11 13 6 7 1011.7 - 0.0
02/06:30pm 10.8 8.1 5.8 71 2.3 WNW 9 17 5 9 1011.8 - 0.0
02/06:00pm 11.4 8.8 5.9 69 2.6 W 9 13 5 7 1011.6 1011.6 0.0
02/05:30pm 11.9 10.1 5.5 65 3.0 W 4 7 2 4 1011.5 - 0.0
02/05:00pm 14.2 11.7 5.0 54 4.3 WSW 7 9 4 5 1011.4 - 0.0
02/04:30pm 15.5 12.6 4.8 49 5.0 SSW 9 13 5 7 1011.1 - 0.0
02/04:00pm 16.2 12.6 4.9 47 5.4 S 13 19 7 10 1011.1 - 0.0
02/03:30pm 16.3 12.1 5.6 49 5.1 S 17 24 9 13 1010.8 - 0.0
02/03:00pm 16.4 11.9 4.1 44 5.7 S 17 22 9 12 1010.9 1010.9 0.0
02/02:30pm 16.8 12.0 2.8 39 6.4 S 17 24 9 13 1010.9 - 0.0
02/02:00pm 17.2 13.6 4.9 44 5.9 SSE 13 22 7 12 1010.9 - 0.0
02/01:30pm 17.9 14.6 4.5 41 6.4 SE 11 19 6 10 1011.3 - 0.0
02/01:00pm 17.1 13.5 5.1 45 5.7 S 13 19 7 10 1011.5 - 0.0
02/12:30pm 17.9 14.7 5.2 43 6.1 SE 11 19 6 10 1011.8 - 0.0
02/12:00pm 18.1 14.8 4.7 41 6.4 E 11 13 6 7 1012.3 1012.3 0.0
02/11:30am 17.6 15.1 4.5 42 6.2 ENE 7 11 4 6 1012.8 - 0.0
02/11:00am 17.8 14.3 3.7 39 6.6 W 11 19 6 10 1013.4 - 0.0
02/10:30am 17.4 14.3 3.7 40 6.4 W 9 13 5 7 1014.0 - 0.0
02/10:00am 16.4 13.2 3.1 41 6.1 WNW 9 13 5 7 1014.0 - 0.0
02/09:30am 15.5 13.2 5.7 52 4.7 WNW 7 9 4 5 1014.3 - 0.0
02/09:00am 13.1 10.4 5.8 61 3.4 NW 9 13 5 7 1014.7 1014.7 0.0
02/08:30am 11.7 8.5 5.1 64 3.0 NW 11 13 6 7 1014.9 - 0.0
02/08:00am 9.3 5.6 4.3 71 2.2 NW 13 17 7 9 1015.1 - 0.0
02/07:30am 7.5 3.3 3.9 78 1.5 NW 15 19 8 10 1015.1 - 0.0
02/07:00am 6.4 2.2 3.6 82 1.2 NW 15 20 8 11 1014.9 - 0.0
02/06:30am 6.3 2.4 3.6 83 1.1 WNW 13 17 7 9 1014.5 - 0.0
02/06:00am 6.5 2.7 4.0 84 1.1 WNW 13 17 7 9 1014.4 1014.4 0.0
02/05:30am 6.7 2.9 4.0 83 1.2 WNW 13 19 7 10 1014.4 - 0.0
02/05:00am 6.8 3.1 4.3 84 1.1 WNW 13 15 7 8 1014.2 - 0.0
02/04:30am 7.8 4.1 4.4 79 1.5 NW 13 17 7 9 1014.0 - 0.0
02/04:00am 7.8 4.2 4.9 82 1.3 NW 13 17 7 9 1013.8 - 0.0
02/03:30am 7.5 3.9 4.8 83 1.2 NW 13 15 7 8 1013.6 - 0.0
02/03:00am 7.8 4.6 5.1 83 1.2 NW 11 17 6 9 1013.4 1013.4 0.0
02/02:30am 7.7 4.5 5.2 84 1.1 WNW 11 13 6 7 1013.5 - 0.0
02/02:00am 8.0 4.5 5.5 84 1.1 NW 13 15 7 8 1013.4 - 0.0
02/01:30am 8.2 5.1 5.7 84 1.1 WNW 11 13 6 7 1013.4 - 0.0
02/01:00am 8.1 5.4 5.6 84 1.1 NW 9 11 5 6 1013.3 - 0.0
02/12:30am 8.7 6.0 5.8 82 1.3 NW 9 11 5 6 1013.4 - 0.0
02/12:00am 8.8 6.6 5.5 80 1.5 NNW 6 9 3 5 1013.4 1013.4 0.0
 
Date/Time
EST
Temp
°C
App
Temp
°C
Dew
Point
Rel
Hum
%
Delta-T
°C
Wind Press
QNH
hPa
Press
MSL
hPa
Rain
since 9 am
mm
Dir
 
Spd
km/h
Gust
km/h
Spd
kts
Gust
kts
01/11:30pm 11.2 8.9 5.9 70 2.5 WNW 7 13 4 7 1013.3 - 0.0
01/11:00pm 11.2 8.9 5.7 69 2.5 WNW 7 9 4 5 1013.2 - 0.0
01/10:30pm 12.0 9.8 6.1 67 2.8 W 7 15 4 8 1013.3 - 0.0
01/10:00pm 12.3 9.7 6.1 66 2.9 W 9 20 5 11 1013.2 - 0.0
01/09:30pm 12.5 9.9 6.3 66 2.9 W 9 17 5 9 1013.0 - 0.0
01/09:00pm 12.8 10.3 6.4 65 3.0 WSW 9 17 5 9 1012.7 1012.7 0.0
01/08:30pm 13.5 10.2 6.6 63 3.3 W 13 30 7 16 1012.5 - 0.0
01/08:00pm 13.3 10.2 7.1 66 3.0 W 13 20 7 11 1012.1 - 0.0
01/07:30pm 13.8 10.3 7.3 65 3.2 WSW 15 24 8 13 1011.6 - 0.0
01/07:00pm 14.4 10.0 6.7 60 3.7 WSW 19 35 10 19 1010.9 - 0.0
01/06:30pm 14.5 10.1 6.6 59 3.8 WSW 19 33 10 18 1010.7 - 0.0
01/06:00pm 14.5 9.7 7.3 62 3.5 W 22 37 12 20 1010.0 1010.0 0.0
01/05:30pm 14.8 9.1 8.5 66 3.2 SW 28 56 15 30 1009.5 - 0.0
01/05:00pm 16.1 10.1 8.8 62 3.7 SW 30 48 16 26 1008.4 - 0.0
01/04:50pm 18.5 12.4 6.4 45 6.0 SSW 28 48 15 26 1007.5 - 0.0
01/04:30pm 20.1 14.7 1.0 28 8.6 W 19 33 10 18 1006.9 - 0.0
01/04:00pm 21.0 15.5 0.8 26 9.1 W 19 44 10 24 1006.1 - 0.0
01/03:30pm 21.6 16.2 1.3 26 9.3 W 19 33 10 18 1005.4 - 0.0
01/03:00pm 22.6 16.7 1.6 25 9.8 WNW 22 39 12 21 1004.6 1004.6 0.0
01/02:30pm 23.3 17.8 1.6 24 10.2 WNW 20 39 11 21 1004.1 - 0.0
01/02:14pm 23.4 15.9 1.1 23 10.4 NW 30 48 16 26 1003.9 - 0.0

Other Formats:

Comma delimited format used in spreadsheet applications
http://www.bom.gov.au/fwo/IDV60801/IDV60801.94935.axf

JavaScript Object Notation format (JSON) in row-major order
http://www.bom.gov.au/fwo/IDV60801/IDV60801.94935.json